Time;durP1;ratioP1;P1;durP2;ratioP2;P2;SDS_P1;SDS_P2;PMS_P1;PMS_P2;Temp;Humidity;BMP_temperature;BMP_pressure;BME280_temperature;BME280_humidity;BME280_pressure;Samples;Min_cycle;Max_cycle;Signal;HPM_P1;HPM_P2
2021/11/24 00:00:13;;;;;;;;;;;20.80;62.80;;;;;;4976145;28;1656;-70
2021/11/24 00:02:39;;;;;;;;;;;20.80;62.80;;;;;;4975730;28;1961;-69
2021/11/24 00:05:04;;;;;;;;;;;20.80;62.80;;;;;;4976051;28;1608;-70
2021/11/24 00:07:30;;;;;;;;;;;20.80;62.90;;;;;;4976116;28;1646;-69
2021/11/24 00:09:55;;;;;;;;;;;20.80;62.90;;;;;;4976087;28;843;-70
2021/11/24 00:12:21;;;;;;;;;;;20.80;62.90;;;;;;4975857;28;840;-70
2021/11/24 00:14:46;;;;;;;;;;;20.70;62.90;;;;;;4976062;28;1121;-70
2021/11/24 00:17:12;;;;;;;;;;;20.70;62.90;;;;;;4975956;28;1673;-70
2021/11/24 00:19:37;;;;;;;;;;;20.80;63.00;;;;;;4976009;28;935;-69
2021/11/24 00:22:03;;;;;;;;;;;20.70;63.00;;;;;;4975853;28;1006;-70
2021/11/24 00:24:28;;;;;;;;;;;20.70;63.00;;;;;;4975843;28;1962;-70
2021/11/24 00:26:53;;;;;;;;;;;20.70;63.00;;;;;;4982683;28;1395;-70
2021/11/24 00:29:19;;;;;;;;;;;20.70;63.00;;;;;;4995234;28;872;-70
2021/11/24 00:31:44;;;;;;;;;;;20.70;63.10;;;;;;4995223;28;882;-70
2021/11/24 00:34:10;;;;;;;;;;;20.70;63.10;;;;;;4995158;28;1045;-70
2021/11/24 00:36:35;;;;;;;;;;;20.70;63.10;;;;;;4989245;28;1362;-69
2021/11/24 00:39:01;;;;;;;;;;;20.70;63.10;;;;;;4975535;28;895;-70
2021/11/24 00:41:26;;;;;;;;;;;20.70;63.10;;;;;;4956987;28;1420;-70
2021/11/24 00:43:52;;;;;;;;;;;20.70;63.10;;;;;;4951194;28;1894;-70
2021/11/24 00:46:17;;;;;;;;;;;20.70;63.20;;;;;;4975609;28;1583;-70
2021/11/24 00:48:43;;;;;;;;;;;20.70;63.20;;;;;;4975172;28;1242;-69
2021/11/24 00:51:08;;;;;;;;;;;20.70;63.20;;;;;;4956892;28;1160;-70
2021/11/24 00:53:34;;;;;;;;;;;20.70;63.20;;;;;;4950447;28;1418;-69
2021/11/24 00:55:59;;;;;;;;;;;20.60;63.20;;;;;;4962234;28;867;-69
2021/11/24 00:58:25;;;;;;;;;;;20.70;63.30;;;;;;4975200;28;1289;-70
2021/11/24 01:00:50;;;;;;;;;;;20.70;63.30;;;;;;4958060;28;859;-70
2021/11/24 01:03:15;;;;;;;;;;;20.70;63.40;;;;;;4975110;28;1907;-70
2021/11/24 01:05:50;;;;;;;;;;;20.70;63.30;;;;;;4975291;28;796;-70
2021/11/24 01:08:16;;;;;;;;;;;20.70;63.40;;;;;;4974367;28;1323;-69
2021/11/24 01:10:42;;;;;;;;;;;20.70;63.40;;;;;;4969858;28;1079;-69
2021/11/24 01:13:07;;;;;;;;;;;20.60;63.40;;;;;;4965800;28;1389;-69
2021/11/24 01:15:33;;;;;;;;;;;20.60;63.40;;;;;;4963249;28;1515;-69
2021/11/24 01:17:58;;;;;;;;;;;20.60;63.40;;;;;;4965438;28;1532;-69
2021/11/24 01:20:24;;;;;;;;;;;20.60;63.40;;;;;;4966532;28;1029;-69
2021/11/24 01:22:49;;;;;;;;;;;20.60;63.40;;;;;;4964395;28;1954;-69
2021/11/24 01:25:15;;;;;;;;;;;20.60;63.50;;;;;;4962767;28;1423;-70
2021/11/24 01:27:41;;;;;;;;;;;20.60;63.40;;;;;;4974588;28;1311;-69
2021/11/24 01:30:08;;;;;;;;;;;20.60;63.50;;;;;;4974222;28;1367;-69
2021/11/24 01:32:34;;;;;;;;;;;20.60;63.50;;;;;;4974143;28;1381;-69
2021/11/24 01:34:59;;;;;;;;;;;20.60;63.50;;;;;;4974319;28;1728;-69
2021/11/24 01:37:25;;;;;;;;;;;20.60;63.50;;;;;;4974129;28;1616;-69
2021/11/24 01:39:50;;;;;;;;;;;20.60;63.50;;;;;;4974281;28;1426;-69
2021/11/24 01:42:16;;;;;;;;;;;20.60;63.50;;;;;;4973974;28;1533;-69
2021/11/24 01:44:42;;;;;;;;;;;20.60;63.60;;;;;;4972991;28;2315;-69
2021/11/24 01:47:07;;;;;;;;;;;20.60;63.60;;;;;;4974243;28;1271;-69
2021/11/24 01:49:33;;;;;;;;;;;20.50;63.50;;;;;;4974272;28;1646;-69
2021/11/24 01:51:59;;;;;;;;;;;20.50;63.50;;;;;;4973951;28;1664;-70
2021/11/24 01:54:25;;;;;;;;;;;20.50;63.60;;;;;;4956955;28;1561;-70
2021/11/24 01:56:50;;;;;;;;;;;20.60;63.60;;;;;;4956837;28;1663;-70
2021/11/24 01:59:16;;;;;;;;;;;20.50;63.60;;;;;;4972440;28;1709;-70
2021/11/24 02:01:42;;;;;;;;;;;20.50;63.60;;;;;;4973766;28;1353;-70
2021/11/24 02:04:08;;;;;;;;;;;20.50;63.70;;;;;;4973742;28;1899;-70
2021/11/24 02:06:33;;;;;;;;;;;20.50;63.60;;;;;;4973940;28;1348;-71
2021/11/24 02:08:59;;;;;;;;;;;20.50;63.60;;;;;;4973181;28;1688;-71
2021/11/24 02:11:24;;;;;;;;;;;20.50;63.70;;;;;;4973627;28;1654;-70
2021/11/24 02:13:50;;;;;;;;;;;20.50;63.70;;;;;;4956986;28;1725;-68
2021/11/24 02:16:15;;;;;;;;;;;20.50;63.70;;;;;;4974096;28;1643;-69
2021/11/24 02:18:40;;;;;;;;;;;20.50;63.70;;;;;;4973953;28;1461;-69
2021/11/24 02:21:06;;;;;;;;;;;20.50;63.70;;;;;;4966205;28;1397;-69
2021/11/24 02:23:31;;;;;;;;;;;20.50;63.70;;;;;;4975085;28;1952;-69
2021/11/24 02:25:57;;;;;;;;;;;20.50;63.80;;;;;;4973980;28;1347;-69
2021/11/24 02:28:22;;;;;;;;;;;20.50;63.80;;;;;;4974595;28;1477;-68
2021/11/24 02:30:48;;;;;;;;;;;20.50;63.80;;;;;;4956537;28;1050;-68
2021/11/24 02:33:14;;;;;;;;;;;20.50;63.80;;;;;;4973452;28;1681;-68
2021/11/24 02:35:41;;;;;;;;;;;20.50;63.80;;;;;;4973474;28;1578;-70
2021/11/24 02:38:07;;;;;;;;;;;20.50;63.80;;;;;;4973226;28;1647;-70
2021/11/24 02:40:32;;;;;;;;;;;20.50;63.90;;;;;;4972377;28;1349;-70
2021/11/24 02:42:58;;;;;;;;;;;20.40;63.80;;;;;;4956102;28;2023;-69
2021/11/24 02:45:23;;;;;;;;;;;20.50;63.90;;;;;;4973648;28;1678;-69
2021/11/24 02:47:49;;;;;;;;;;;20.50;64.70;;;;;;4956436;28;1685;-69
2021/11/24 02:50:14;;;;;;;;;;;20.50;64.00;;;;;;4973563;28;1715;-69
2021/11/24 02:52:40;;;;;;;;;;;20.40;63.90;;;;;;4972768;28;1820;-67
2021/11/24 02:55:05;;;;;;;;;;;20.40;63.90;;;;;;4973662;28;1642;-67
2021/11/24 02:57:34;;;;;;;;;;;20.40;63.90;;;;;;4973793;28;1696;-67
2021/11/24 03:00:00;;;;;;;;;;;20.40;63.90;;;;;;4975349;28;1581;-69
2021/11/24 03:02:27;;;;;;;;;;;20.40;63.90;;;;;;4955992;28;1489;-68
2021/11/24 03:04:53;;;;;;;;;;;20.40;63.90;;;;;;4972207;28;1899;-69
2021/11/24 03:07:18;;;;;;;;;;;20.40;63.90;;;;;;4956021;28;1626;-68
2021/11/24 03:09:45;;;;;;;;;;;20.40;64.00;;;;;;4973523;28;1645;-68
2021/11/24 03:12:11;;;;;;;;;;;20.40;64.00;;;;;;4975664;28;1368;-67
2021/11/24 03:14:36;;;;;;;;;;;20.40;64.00;;;;;;4976918;28;1409;-67
2021/11/24 03:17:02;;;;;;;;;;;20.40;64.00;;;;;;4976815;28;1733;-68
2021/11/24 03:19:27;;;;;;;;;;;20.40;64.00;;;;;;4976900;28;1354;-68
2021/11/24 03:21:53;;;;;;;;;;;20.40;64.00;;;;;;4976355;28;1610;-69
2021/11/24 03:24:18;;;;;;;;;;;20.40;64.00;;;;;;4976540;28;1898;-69
2021/11/24 03:26:44;;;;;;;;;;;20.40;64.00;;;;;;4977794;28;1437;-69
2021/11/24 03:29:09;;;;;;;;;;;20.40;64.00;;;;;;4975444;28;1460;-69
2021/11/24 03:31:35;;;;;;;;;;;20.40;64.00;;;;;;4976413;28;1781;-67
2021/11/24 03:34:00;;;;;;;;;;;20.40;64.00;;;;;;4976104;28;1585;-68
2021/11/24 03:36:25;;;;;;;;;;;20.40;64.10;;;;;;4976238;28;1433;-68
2021/11/24 03:38:51;;;;;;;;;;;20.40;64.10;;;;;;4975233;28;1782;-68
2021/11/24 03:41:16;;;;;;;;;;;20.40;64.10;;;;;;4975996;28;1681;-68
2021/11/24 03:43:42;;;;;;;;;;;20.40;64.10;;;;;;4976444;28;1963;-68
2021/11/24 03:46:07;;;;;;;;;;;20.40;64.90;;;;;;4976316;28;1392;-68
2021/11/24 03:48:33;;;;;;;;;;;20.40;64.10;;;;;;4976271;28;1434;-68
2021/11/24 03:50:58;;;;;;;;;;;20.40;64.10;;;;;;4975650;28;1663;-69
2021/11/24 03:53:24;;;;;;;;;;;20.40;64.10;;;;;;4976139;28;1382;-68
2021/11/24 03:55:49;;;;;;;;;;;20.40;64.10;;;;;;4976225;28;1717;-69
2021/11/24 03:58:15;;;;;;;;;;;20.40;64.10;;;;;;4976123;28;1386;-70
2021/11/24 04:00:40;;;;;;;;;;;20.40;64.20;;;;;;4976011;28;1721;-69
2021/11/24 04:03:06;;;;;;;;;;;20.40;64.10;;;;;;4975843;28;1899;-68
2021/11/24 04:05:31;;;;;;;;;;;20.40;64.20;;;;;;4975879;28;1655;-69
2021/11/24 04:07:57;;;;;;;;;;;20.40;64.20;;;;;;4975806;28;1643;-69
2021/11/24 04:10:22;;;;;;;;;;;20.40;64.20;;;;;;4975795;28;1641;-69
2021/11/24 04:12:47;;;;;;;;;;;20.40;64.20;;;;;;4975847;28;1291;-68
2021/11/24 04:15:14;;;;;;;;;;;20.40;64.20;;;;;;4975861;28;1565;-68
2021/11/24 04:17:39;;;;;;;;;;;20.40;64.20;;;;;;4975949;28;1281;-69
2021/11/24 04:20:05;;;;;;;;;;;20.40;64.20;;;;;;4977252;28;1380;-69
2021/11/24 04:22:31;;;;;;;;;;;20.30;64.20;;;;;;4983986;28;1550;-67
2021/11/24 04:24:56;;;;;;;;;;;20.30;64.20;;;;;;4958186;28;1891;-68
2021/11/24 04:27:22;;;;;;;;;;;20.30;64.20;;;;;;4975653;28;1442;-70
2021/11/24 04:29:48;;;;;;;;;;;20.30;64.20;;;;;;4958260;28;1760;-70
2021/11/24 04:32:16;;;;;;;;;;;20.30;64.20;;;;;;4958120;28;1671;-70
2021/11/24 04:34:42;;;;;;;;;;;20.30;64.20;;;;;;4975318;28;1636;-71
2021/11/24 04:37:07;;;;;;;;;;;20.30;64.20;;;;;;4991348;23;2054;-65
2021/11/24 04:39:33;;;;;;;;;;;20.30;64.20;;;;;;4991591;28;1259;-66
2021/11/24 04:41:58;;;;;;;;;;;20.30;64.30;;;;;;4984058;28;1140;-66
2021/11/24 04:44:24;;;;;;;;;;;20.30;64.30;;;;;;4991493;28;1918;-66
2021/11/24 04:46:49;;;;;;;;;;;20.30;64.30;;;;;;4994621;28;1389;-66
2021/11/24 04:49:15;;;;;;;;;;;20.30;64.30;;;;;;4994492;28;1545;-66
2021/11/24 04:51:40;;;;;;;;;;;20.30;64.30;;;;;;4994230;28;1379;-66
2021/11/24 04:54:05;;;;;;;;;;;20.30;64.30;;;;;;4994438;28;1458;-66
2021/11/24 04:56:32;;;;;;;;;;;20.30;64.30;;;;;;4994312;28;1361;-66
2021/11/24 04:58:59;;;;;;;;;;;20.30;64.30;;;;;;4994387;28;1522;-66
2021/11/24 05:01:25;;;;;;;;;;;20.30;64.30;;;;;;4994008;28;1652;-65
2021/11/24 05:03:51;;;;;;;;;;;20.30;64.30;;;;;;4993945;28;1903;-66
2021/11/24 05:06:18;;;;;;;;;;;20.30;64.30;;;;;;4976811;28;1384;-66
2021/11/24 05:08:43;;;;;;;;;;;20.30;64.30;;;;;;4994248;28;1737;-66
2021/11/24 05:11:09;;;;;;;;;;;20.30;64.30;;;;;;4975911;28;1105;-66
2021/11/24 05:13:35;;;;;;;;;;;20.30;64.30;;;;;;4993482;28;1485;-66
2021/11/24 05:16:03;;;;;;;;;;;20.30;64.20;;;;;;4976193;28;1278;-66
2021/11/24 05:18:41;;;;;;;;;;;20.40;64.20;;;;;;4976753;28;1879;-66
2021/11/24 05:24:05;;;;;;;;;;;20.40;64.00;;;;;;4943417;28;1895;-66
2021/11/24 05:26:31;;;;;;;;;;;20.40;63.90;;;;;;4963548;28;1447;-66
2021/11/24 05:28:56;;;;;;;;;;;20.40;63.80;;;;;;4983268;28;1396;-66
2021/11/24 05:31:22;;;;;;;;;;;20.50;63.70;;;;;;4973911;28;1663;-66
2021/11/24 05:33:48;;;;;;;;;;;20.50;63.60;;;;;;4956153;28;1375;-66
2021/11/24 05:36:14;;;;;;;;;;;20.50;63.50;;;;;;4974121;28;1671;-66
2021/11/24 05:38:39;;;;;;;;;;;20.60;63.50;;;;;;4974063;28;1712;-67
2021/11/24 05:41:05;;;;;;;;;;;20.60;63.40;;;;;;4977046;28;1441;-67
2021/11/24 05:43:31;;;;;;;;;;;20.60;63.30;;;;;;4993134;28;1910;-66
2021/11/24 05:48:23;;;;;;;;;;;20.60;63.10;;;;;;4976556;28;1624;-66
2021/11/24 05:50:48;;;;;;;;;;;20.60;63.10;;;;;;4976174;28;1676;-66
2021/11/24 05:53:15;;;;;;;;;;;20.70;63.10;;;;;;4993415;28;1701;-66
2021/11/24 05:55:42;;;;;;;;;;;20.60;63.00;;;;;;4976241;28;1645;-67
2021/11/24 05:58:07;;;;;;;;;;;20.70;63.00;;;;;;4993301;28;1614;-66
2021/11/24 06:00:33;;;;;;;;;;;20.70;63.00;;;;;;4993208;28;1602;-67
2021/11/24 06:02:59;;;;;;;;;;;20.70;62.90;;;;;;4984375;28;2094;-66
2021/11/24 06:05:24;;;;;;;;;;;20.70;62.80;;;;;;4989116;28;1415;-65
2021/11/24 06:07:50;;;;;;;;;;;20.70;62.80;;;;;;4982875;28;1547;-65
2021/11/24 06:10:15;;;;;;;;;;;20.70;62.80;;;;;;4973791;28;1650;-65
2021/11/24 06:12:41;;;;;;;;;;;20.70;62.70;;;;;;4956316;28;1400;-66
2021/11/24 06:15:07;;;;;;;;;;;20.70;62.70;;;;;;4973805;28;1380;-66
2021/11/24 06:17:32;;;;;;;;;;;20.70;62.70;;;;;;4973719;28;1246;-66
2021/11/24 06:19:58;;;;;;;;;;;20.70;62.70;;;;;;4975420;28;1320;-67
2021/11/24 06:22:23;;;;;;;;;;;20.70;62.60;;;;;;4994298;28;1622;-67
2021/11/24 06:24:49;;;;;;;;;;;20.70;62.60;;;;;;4973912;28;1906;-67
2021/11/24 06:27:14;;;;;;;;;;;20.70;62.50;;;;;;4974156;28;1439;-67
2021/11/24 06:29:40;;;;;;;;;;;20.70;63.30;;;;;;4956722;28;1669;-67
2021/11/24 06:32:05;;;;;;;;;;;20.80;62.60;;;;;;4955967;28;1588;-67
2021/11/24 06:34:31;;;;;;;;;;;20.80;62.60;;;;;;4973067;28;1610;-67
2021/11/24 06:36:57;;;;;;;;;;;20.80;62.60;;;;;;4973341;28;1684;-67
2021/11/24 06:39:23;;;;;;;;;;;20.80;62.60;;;;;;4973247;28;1780;-67
2021/11/24 06:41:49;;;;;;;;;;;20.80;62.50;;;;;;4982397;28;1780;-67
2021/11/24 06:44:14;;;;;;;;;;;20.80;62.50;;;;;;4992927;28;1969;-66
2021/11/24 06:46:40;;;;;;;;;;;20.80;62.50;;;;;;4996310;28;1648;-66
2021/11/24 06:49:05;;;;;;;;;;;20.80;62.50;;;;;;4995980;28;1403;-66
2021/11/24 06:51:31;;;;;;;;;;;20.80;62.50;;;;;;4995707;28;1668;-66
2021/11/24 06:53:56;;;;;;;;;;;20.80;62.50;;;;;;4993874;28;2207;-66
2021/11/24 06:56:22;;;;;;;;;;;20.80;62.40;;;;;;4990720;28;1566;-66
2021/11/24 06:58:48;;;;;;;;;;;20.80;62.40;;;;;;4992406;28;1587;-66
2021/11/24 07:01:13;;;;;;;;;;;20.80;62.50;;;;;;4986762;28;1488;-66
2021/11/24 07:03:38;;;;;;;;;;;20.80;62.40;;;;;;4976309;28;1910;-66
2021/11/24 07:06:04;;;;;;;;;;;20.80;63.20;;;;;;4976200;28;1589;-66
2021/11/24 07:08:29;;;;;;;;;;;20.80;62.40;;;;;;4976061;28;1493;-66
2021/11/24 07:10:55;;;;;;;;;;;20.80;62.40;;;;;;4975863;28;1584;-65
2021/11/24 07:13:20;;;;;;;;;;;20.80;62.30;;;;;;4975997;28;1315;-65
2021/11/24 07:15:46;;;;;;;;;;;20.80;62.40;;;;;;4976073;28;1333;-65
2021/11/24 07:18:11;;;;;;;;;;;20.80;62.30;;;;;;4976032;28;1660;-65
2021/11/24 07:20:37;;;;;;;;;;;20.80;62.30;;;;;;4988362;28;1366;-66
2021/11/24 07:23:02;;;;;;;;;;;20.80;62.30;;;;;;4984786;28;1966;-67
2021/11/24 07:25:29;;;;;;;;;;;20.80;62.30;;;;;;4975917;28;1653;-66
2021/11/24 07:27:55;;;;;;;;;;;20.80;62.30;;;;;;4976776;28;1496;-66
2021/11/24 07:30:21;;;;;;;;;;;20.80;62.30;;;;;;4985547;28;1341;-66
2021/11/24 07:32:47;;;;;;;;;;;20.80;62.30;;;;;;4975957;28;1522;-66
2021/11/24 07:35:12;;;;;;;;;;;20.80;62.30;;;;;;4966649;28;943;-66
2021/11/24 07:37:38;;;;;;;;;;;20.80;62.30;;;;;;4994602;28;2670;-67
2021/11/24 07:40:04;;;;;;;;;;;20.80;62.20;;;;;;4995786;28;1610;-66
2021/11/24 07:42:30;;;;;;;;;;;20.90;62.20;;;;;;4995680;28;1517;-66
2021/11/24 07:44:55;;;;;;;;;;;21.00;62.10;;;;;;4995627;28;1903;-65
2021/11/24 07:47:21;;;;;;;;;;;21.00;61.90;;;;;;4995540;28;1550;-66
2021/11/24 07:49:46;;;;;;;;;;;21.10;61.80;;;;;;4990209;28;1318;-66
2021/11/24 07:52:12;;;;;;;;;;;21.20;61.60;;;;;;4968643;28;1222;-66
2021/11/24 07:54:37;;;;;;;;;;;21.30;61.50;;;;;;4992461;28;1173;-66
2021/11/24 07:57:03;;;;;;;;;;;21.40;61.10;;;;;;4992123;28;1507;-67
2021/11/24 07:59:28;;;;;;;;;;;21.50;60.90;;;;;;4976135;28;1591;-66
2021/11/24 08:01:54;;;;;;;;;;;21.60;60.50;;;;;;4975667;28;1712;-66
2021/11/24 08:04:19;;;;;;;;;;;21.70;60.30;;;;;;4975895;28;1903;-66
2021/11/24 08:06:45;;;;;;;;;;;21.80;60.10;;;;;;4979461;28;1495;-66
2021/11/24 08:09:10;;;;;;;;;;;21.80;59.90;;;;;;4975868;28;1191;-66
2021/11/24 08:11:35;;;;;;;;;;;21.90;59.70;;;;;;4975302;28;1657;-66
2021/11/24 08:14:01;;;;;;;;;;;22.00;59.60;;;;;;4981123;28;1661;-66
2021/11/24 08:16:27;;;;;;;;;;;22.00;59.40;;;;;;4975212;28;1178;-66
2021/11/24 08:18:52;;;;;;;;;;;22.10;59.30;;;;;;4976400;28;1347;-67
2021/11/24 08:21:18;;;;;;;;;;;22.10;59.20;;;;;;4993026;28;1221;-66
2021/11/24 08:23:44;;;;;;;;;;;22.20;59.10;;;;;;4993068;28;1898;-66
2021/11/24 08:26:09;;;;;;;;;;;22.20;59.00;;;;;;4993684;28;1205;-67
2021/11/24 08:28:35;;;;;;;;;;;22.20;58.90;;;;;;4994470;28;1574;-66
2021/11/24 08:31:00;;;;;;;;;;;22.30;58.90;;;;;;4981828;28;1613;-66
2021/11/24 08:33:25;;;;;;;;;;;22.30;58.80;;;;;;4975258;28;1718;-67
2021/11/24 08:35:51;;;;;;;;;;;22.40;58.70;;;;;;4975291;28;1650;-67
2021/11/24 08:38:17;;;;;;;;;;;22.30;58.60;;;;;;4975228;28;1231;-67
2021/11/24 08:40:43;;;;;;;;;;;22.40;58.60;;;;;;4973132;28;1382;-66
2021/11/24 08:43:09;;;;;;;;;;;22.40;58.50;;;;;;4993907;28;1910;-67
2021/11/24 08:45:35;;;;;;;;;;;22.40;58.50;;;;;;4994466;28;1701;-66
2021/11/24 08:48:02;;;;;;;;;;;22.50;58.60;;;;;;4994047;28;1619;-66
2021/11/24 08:50:28;;;;;;;;;;;22.50;58.60;;;;;;4994096;28;1593;-66
2021/11/24 08:52:54;;;;;;;;;;;22.50;58.50;;;;;;4994289;28;1326;-66
2021/11/24 08:55:19;;;;;;;;;;;22.50;58.50;;;;;;4994050;28;1677;-66
2021/11/24 08:57:46;;;;;;;;;;;22.50;58.40;;;;;;4994329;28;1642;-66
2021/11/24 09:00:13;;;;;;;;;;;22.60;58.50;;;;;;4994221;28;1848;-66
2021/11/24 09:02:38;;;;;;;;;;;22.50;58.40;;;;;;4994006;28;1618;-66
2021/11/24 09:05:04;;;;;;;;;;;22.60;58.50;;;;;;4994135;28;1962;-66
2021/11/24 09:07:30;;;;;;;;;;;22.60;58.50;;;;;;4976451;28;2056;-66
2021/11/24 09:09:55;;;;;;;;;;;22.60;58.40;;;;;;4993865;28;1578;-67
2021/11/24 09:12:21;;;;;;;;;;;22.60;58.50;;;;;;4993552;28;1425;-66
2021/11/24 09:14:46;;;;;;;;;;;22.60;58.50;;;;;;4993903;28;1391;-66
2021/11/24 09:17:12;;;;;;;;;;;22.60;58.50;;;;;;4977380;28;1417;-66
2021/11/24 09:19:40;;;;;;;;;;;22.60;58.50;;;;;;4991561;28;1450;-66
2021/11/24 09:22:07;;;;;;;;;;;22.60;58.40;;;;;;4988012;28;1209;-66
2021/11/24 09:24:32;;;;;;;;;;;22.60;58.50;;;;;;4974397;28;1898;-66
2021/11/24 09:27:02;;;;;;;;;;;22.60;58.50;;;;;;4976054;28;1434;-66
2021/11/24 09:29:27;;;;;;;;;;;22.60;58.40;;;;;;4974634;28;1604;-66
2021/11/24 09:31:53;;;;;;;;;;;22.60;58.40;;;;;;4974289;28;1608;-67
2021/11/24 09:34:19;;;;;;;;;;;22.60;58.30;;;;;;4987401;28;1652;-67
2021/11/24 09:36:44;;;;;;;;;;;22.60;58.30;;;;;;4957079;28;1054;-66
2021/11/24 09:39:10;;;;;;;;;;;22.60;58.30;;;;;;4974233;28;1205;-66
2021/11/24 09:41:38;;;;;;;;;;;22.60;58.40;;;;;;4981272;28;1538;-66
2021/11/24 09:44:04;;;;;;;;;;;22.60;58.40;;;;;;4993732;28;1906;-66
2021/11/24 09:46:30;;;;;;;;;;;22.50;58.30;;;;;;4993640;28;1602;-66
2021/11/24 09:48:55;;;;;;;;;;;22.50;58.30;;;;;;4993795;28;1604;-67
2021/11/24 09:51:21;;;;;;;;;;;22.50;58.40;;;;;;4976022;28;1627;-66
2021/11/24 09:53:47;;;;;;;;;;;22.50;58.50;;;;;;4976258;28;1442;-66
2021/11/24 09:56:13;;;;;;;;;;;22.50;58.50;;;;;;4976100;28;1681;-66
2021/11/24 09:58:38;;;;;;;;;;;22.50;58.60;;;;;;4993504;28;1385;-66
2021/11/24 10:01:04;;;;;;;;;;;22.50;58.50;;;;;;4967466;28;1133;-66
2021/11/24 10:03:31;;;;;;;;;;;22.50;58.60;;;;;;4956731;28;1970;-67
2021/11/24 10:05:56;;;;;;;;;;;22.50;58.60;;;;;;4973915;28;1357;-67
2021/11/24 10:08:22;;;;;;;;;;;22.50;58.70;;;;;;4974191;28;1574;-67
2021/11/24 10:10:47;;;;;;;;;;;22.40;58.60;;;;;;4973692;28;1144;-67
2021/11/24 10:13:14;;;;;;;;;;;22.50;58.70;;;;;;4974084;28;1629;-67
2021/11/24 10:15:47;;;;;;;;;;;22.40;58.60;;;;;;4974008;28;1572;-66
2021/11/24 10:18:12;;;;;;;;;;;22.40;58.70;;;;;;4956811;28;1380;-67
2021/11/24 10:21:04;;;;;;;;;;;22.40;58.70;;;;;;4988727;28;1347;-66
2021/11/24 10:23:32;;;;;;;;;;;22.50;58.70;;;;;;4975845;28;1973;-66
2021/11/24 10:26:17;;;;;;;;;;;22.40;58.70;;;;;;4972474;28;1682;-66
2021/11/24 10:28:49;;;;;;;;;;;22.50;58.70;;;;;;4977705;28;1669;-65
2021/11/24 10:31:21;;;;;;;;;;;22.40;58.70;;;;;;4969571;28;2001;-66
2021/11/24 10:33:47;;;;;;;;;;;22.50;58.70;;;;;;4969842;28;2100;-67
2021/11/24 10:36:12;;;;;;;;;;;22.50;58.70;;;;;;4998564;28;1991;-66
2021/11/24 10:38:39;;;;;;;;;;;22.50;58.70;;;;;;5001142;23;3677;-71
2021/11/24 10:41:04;;;;;;;;;;;22.50;58.70;;;;;;4959386;28;1250;-71
2021/11/24 10:43:30;;;;;;;;;;;22.40;58.70;;;;;;4956223;29;1906;-69
2021/11/24 10:45:56;;;;;;;;;;;22.50;58.70;;;;;;4938287;29;1341;-69
2021/11/24 10:48:25;;;;;;;;;;;22.50;58.70;;;;;;4956995;29;1387;-69
2021/11/24 10:50:51;;;;;;;;;;;22.50;58.70;;;;;;4939952;29;1617;-71
2021/11/24 10:53:20;;;;;;;;;;;22.50;58.70;;;;;;4960415;28;1417;-71
2021/11/24 10:55:45;;;;;;;;;;;22.50;58.70;;;;;;4952652;29;1414;-70
2021/11/24 10:58:16;;;;;;;;;;;22.50;58.70;;;;;;4955196;29;1267;-71
2021/11/24 11:00:42;;;;;;;;;;;22.50;58.70;;;;;;4950670;29;1439;-71
2021/11/24 11:03:08;;;;;;;;;;;22.50;58.70;;;;;;4939391;29;1911;-71
2021/11/24 11:05:34;;;;;;;;;;;22.50;58.80;;;;;;4956222;29;1389;-72
2021/11/24 11:08:06;;;;;;;;;;;22.50;59.40;;;;;;4954590;29;2169;-71
2021/11/24 11:10:33;;;;;;;;;;;22.50;58.80;;;;;;4956927;29;1169;-71
2021/11/24 11:12:58;;;;;;;;;;;22.40;58.80;;;;;;4940003;29;1281;-70
2021/11/24 11:15:25;;;;;;;;;;;22.40;58.90;;;;;;4957232;29;1363;-70
2021/11/24 11:17:50;;;;;;;;;;;22.40;58.90;;;;;;4956892;29;1264;-70
2021/11/24 11:20:16;;;;;;;;;;;22.40;58.90;;;;;;4958661;28;1349;-69
2021/11/24 11:22:42;;;;;;;;;;;22.40;59.00;;;;;;4957040;29;1385;-71
2021/11/24 11:25:08;;;;;;;;;;;22.30;59.00;;;;;;4957020;29;1956;-71
2021/11/24 11:27:33;;;;;;;;;;;22.30;59.00;;;;;;4941271;29;1380;-71
2021/11/24 11:30:00;;;;;;;;;;;22.30;59.00;;;;;;4944329;29;1237;-71
2021/11/24 11:32:26;;;;;;;;;;;22.30;59.10;;;;;;4938474;29;1122;-71
2021/11/24 11:34:51;;;;;;;;;;;22.30;59.20;;;;;;4956063;29;1134;-71
2021/11/24 11:37:17;;;;;;;;;;;22.30;59.20;;;;;;4955981;29;1098;-71
2021/11/24 11:39:43;;;;;;;;;;;22.30;59.20;;;;;;4956603;28;1353;-71
2021/11/24 11:42:09;;;;;;;;;;;22.30;59.30;;;;;;4939668;29;1149;-71
2021/11/24 11:44:35;;;;;;;;;;;22.30;59.30;;;;;;4953333;29;1907;-71
2021/11/24 11:47:00;;;;;;;;;;;22.30;59.40;;;;;;4952836;29;1093;-70
2021/11/24 11:49:26;;;;;;;;;;;22.30;59.30;;;;;;4955605;29;1355;-70
2021/11/24 11:51:53;;;;;;;;;;;22.20;59.30;;;;;;4939539;29;1384;-70
2021/11/24 11:54:26;;;;;;;;;;;22.30;59.30;;;;;;4955522;29;1302;-69
2021/11/24 11:56:51;;;;;;;;;;;22.30;59.20;;;;;;4955873;29;1280;-69
2021/11/24 11:59:21;;;;;;;;;;;22.30;59.20;;;;;;4955438;29;1352;-70
2021/11/24 12:01:46;;;;;;;;;;;22.40;59.20;;;;;;4955302;29;1122;-69
2021/11/24 12:04:16;;;;;;;;;;;22.40;59.10;;;;;;4956699;29;1956;-70
2021/11/24 12:06:51;;;;;;;;;;;22.40;59.00;;;;;;4948889;28;1726;-70
2021/11/24 12:09:29;;;;;;;;;;;22.40;59.00;;;;;;4935369;28;1741;-70
2021/11/24 12:12:10;;;;;;;;;;;22.50;58.90;;;;;;4951499;28;1351;-69
2021/11/24 12:14:45;;;;;;;;;;;22.50;58.90;;;;;;4958426;28;1168;-69
2021/11/24 12:17:32;;;;;;;;;;;22.50;58.80;;;;;;4956700;28;1061;-69
2021/11/24 12:19:59;;;;;;;;;;;22.50;58.70;;;;;;4957139;28;1300;-68
2021/11/24 12:22:43;;;;;;;;;;;22.60;58.80;;;;;;4961478;28;1426;-68
2021/11/24 12:25:24;;;;;;;;;;;22.50;58.60;;;;;;4958494;28;1887;-71
2021/11/24 12:27:53;;;;;;;;;;;22.60;58.60;;;;;;4952163;28;1886;-69
2021/11/24 12:30:34;;;;;;;;;;;22.60;58.70;;;;;;4956086;29;1292;-72
2021/11/24 12:33:08;;;;;;;;;;;22.50;58.60;;;;;;4952450;29;1173;-70
2021/11/24 12:35:35;;;;;;;;;;;22.60;58.60;;;;;;4956085;29;1098;-70
2021/11/24 12:38:01;;;;;;;;;;;22.50;58.60;;;;;;4955057;29;1267;-69
2021/11/24 12:40:31;;;;;;;;;;;22.50;58.60;;;;;;4956046;29;1290;-69
2021/11/24 12:42:56;;;;;;;;;;;22.50;58.60;;;;;;4937898;29;1918;-70
2021/11/24 12:45:22;;;;;;;;;;;22.50;58.70;;;;;;4954705;29;1059;-70
2021/11/24 12:47:56;;;;;;;;;;;22.50;58.70;;;;;;4955376;29;1354;-70
2021/11/24 12:50:25;;;;;;;;;;;22.50;58.80;;;;;;4955950;29;1332;-70
2021/11/24 12:52:57;;;;;;;;;;;22.50;58.80;;;;;;4938068;29;1314;-69
2021/11/24 12:55:23;;;;;;;;;;;22.50;58.80;;;;;;4955723;29;1379;-70
2021/11/24 12:57:48;;;;;;;;;;;22.50;58.90;;;;;;4955358;29;1373;-69
2021/11/24 13:00:28;;;;;;;;;;;22.50;58.90;;;;;;4936632;29;1957;-73
2021/11/24 13:02:53;;;;;;;;;;;22.50;58.90;;;;;;4954384;29;1372;-72
2021/11/24 13:05:19;;;;;;;;;;;22.40;58.90;;;;;;4958069;28;1991;-71
2021/11/24 13:07:54;;;;;;;;;;;22.50;58.90;;;;;;4936539;29;2405;-71
2021/11/24 13:10:21;;;;;;;;;;;22.50;58.90;;;;;;4948508;29;1830;-71
2021/11/24 13:12:46;;;;;;;;;;;22.50;59.00;;;;;;4952617;29;1625;-71
2021/11/24 13:15:11;;;;;;;;;;;22.50;59.00;;;;;;4955640;29;1569;-71
2021/11/24 13:17:39;;;;;;;;;;;22.40;59.00;;;;;;4955517;29;1675;-71
2021/11/24 13:20:09;;;;;;;;;;;22.40;59.00;;;;;;4957230;28;1373;-71
2021/11/24 13:22:41;;;;;;;;;;;22.40;59.00;;;;;;4957118;28;1735;-70
2021/11/24 13:25:07;;;;;;;;;;;22.40;59.00;;;;;;4955359;29;1970;-70
2021/11/24 13:27:39;;;;;;;;;;;22.40;59.10;;;;;;4955864;28;1449;-71
2021/11/24 13:30:05;;;;;;;;;;;22.40;59.70;;;;;;4955275;29;1411;-71
2021/11/24 13:32:30;;;;;;;;;;;22.40;59.10;;;;;;4954951;28;1385;-71
2021/11/24 13:34:56;;;;;;;;;;;22.40;59.10;;;;;;4955248;29;1697;-71
2021/11/24 13:37:26;;;;;;;;;;;22.30;59.10;;;;;;4938234;29;1723;-70
2021/11/24 13:39:52;;;;;;;;;;;22.40;59.20;;;;;;4955266;29;1477;-71
2021/11/24 13:42:17;;;;;;;;;;;22.40;59.30;;;;;;4937801;29;1497;-70
2021/11/24 13:44:46;;;;;;;;;;;22.30;59.20;;;;;;4954977;28;2035;-73
2021/11/24 13:47:11;;;;;;;;;;;22.30;59.20;;;;;;4955265;29;1365;-70
2021/11/24 13:49:41;;;;;;;;;;;22.30;59.30;;;;;;4938554;29;1407;-70
2021/11/24 13:52:10;;;;;;;;;;;22.30;59.40;;;;;;4953744;29;1502;-70
2021/11/24 13:54:42;;;;;;;;;;;22.30;59.40;;;;;;4937664;29;1609;-70
2021/11/24 13:57:10;;;;;;;;;;;22.30;59.40;;;;;;4955006;29;1394;-71
2021/11/24 13:59:35;;;;;;;;;;;22.30;59.40;;;;;;4955058;29;1676;-70
2021/11/24 14:02:11;;;;;;;;;;;22.20;59.50;;;;;;4937611;29;1604;-70
2021/11/24 14:04:36;;;;;;;;;;;22.20;59.40;;;;;;4955003;28;1967;-71
2021/11/24 14:07:08;;;;;;;;;;;22.20;59.50;;;;;;4954926;29;1557;-71
2021/11/24 14:09:37;;;;;;;;;;;22.20;59.50;;;;;;4954830;28;1829;-71
2021/11/24 14:12:03;;;;;;;;;;;22.20;59.60;;;;;;4937180;29;1647;-71
2021/11/24 14:14:40;;;;;;;;;;;22.20;59.60;;;;;;4954890;29;1391;-70
2021/11/24 14:17:05;;;;;;;;;;;22.20;59.60;;;;;;4937705;29;1652;-71
2021/11/24 14:19:31;;;;;;;;;;;22.10;59.60;;;;;;4954827;29;1404;-71
2021/11/24 14:21:57;;;;;;;;;;;22.10;59.70;;;;;;4965287;28;1686;-71
2021/11/24 14:24:23;;;;;;;;;;;22.10;59.70;;;;;;4954599;29;1971;-71
2021/11/24 14:26:48;;;;;;;;;;;22.10;59.70;;;;;;4955056;28;1725;-71
2021/11/24 14:29:14;;;;;;;;;;;22.10;59.70;;;;;;4936419;29;1999;-70
2021/11/24 14:31:39;;;;;;;;;;;22.10;59.80;;;;;;4954050;28;1501;-72